sensor_id;sensor_type;location;lat;lon;timestamp;P1;durP1;ratioP1;P2;durP2;ratioP2
13222;SDS011;6676;45.192;5.722;2022-12-18T05:41:56;10.43;;;6.75;;
13222;SDS011;6676;45.192;5.722;2022-12-18T06:01:25;10.15;;;7.12;;
13222;SDS011;6676;45.192;5.722;2022-12-18T06:04:18;9.65;;;6.90;;
13222;SDS011;6676;45.192;5.722;2022-12-18T06:07:10;8.83;;;7.05;;
13222;SDS011;6676;45.192;5.722;2022-12-18T06:26:06;10.13;;;6.65;;
13222;SDS011;6676;45.192;5.722;2022-12-18T06:29:00;11.95;;;7.95;;
13222;SDS011;6676;45.192;5.722;2022-12-18T06:31:52;12.90;;;8.63;;
13222;SDS011;6676;45.192;5.722;2022-12-18T06:34:44;12.90;;;9.40;;
13222;SDS011;6676;45.192;5.722;2022-12-18T06:37:31;11.70;;;8.48;;
13222;SDS011;6676;45.192;5.722;2022-12-18T06:40:23;12.82;;;8.75;;
13222;SDS011;6676;45.192;5.722;2022-12-18T06:43:15;12.13;;;8.58;;
13222;SDS011;6676;45.192;5.722;2022-12-18T06:46:07;12.88;;;8.20;;
13222;SDS011;6676;45.192;5.722;2022-12-18T06:49:00;12.85;;;8.58;;
13222;SDS011;6676;45.192;5.722;2022-12-18T06:51:52;12.82;;;8.68;;
13222;SDS011;6676;45.192;5.722;2022-12-18T06:54:44;13.10;;;9.70;;
13222;SDS011;6676;45.192;5.722;2022-12-18T06:57:36;13.32;;;9.15;;
13222;SDS011;6676;45.192;5.722;2022-12-18T07:00:28;14.07;;;9.48;;
13222;SDS011;6676;45.192;5.722;2022-12-18T07:03:19;16.17;;;10.32;;
13222;SDS011;6676;45.192;5.722;2022-12-18T07:06:15;13.75;;;9.80;;
13222;SDS011;6676;45.192;5.722;2022-12-18T07:09:07;13.20;;;9.65;;
13222;SDS011;6676;45.192;5.722;2022-12-18T07:11:59;15.53;;;10.35;;
13222;SDS011;6676;45.192;5.722;2022-12-18T07:17:31;16.70;;;10.43;;
13222;SDS011;6676;45.192;5.722;2022-12-18T07:20:22;13.08;;;9.18;;
13222;SDS011;6676;45.192;5.722;2022-12-18T07:23:14;13.60;;;9.50;;
13222;SDS011;6676;45.192;5.722;2022-12-18T07:26:06;13.30;;;9.05;;
13222;SDS011;6676;45.192;5.722;2022-12-18T07:28:49;13.50;;;9.08;;
13222;SDS011;6676;45.192;5.722;2022-12-18T07:31:43;14.47;;;10.23;;
13222;SDS011;6676;45.192;5.722;2022-12-18T07:34:35;12.23;;;9.18;;
13222;SDS011;6676;45.192;5.722;2022-12-18T07:40:24;13.05;;;9.25;;
13222;SDS011;6676;45.192;5.722;2022-12-18T08:00:36;13.05;;;9.90;;
13222;SDS011;6676;45.192;5.722;2022-12-18T08:17:09;11.57;;;8.05;;
13222;SDS011;6676;45.192;5.722;2022-12-18T08:20:01;12.73;;;8.40;;
13222;SDS011;6676;45.192;5.722;2022-12-18T08:22:54;12.15;;;8.33;;
13222;SDS011;6676;45.192;5.722;2022-12-18T08:25:46;12.40;;;7.70;;
13222;SDS011;6676;45.192;5.722;2022-12-18T08:31:29;11.30;;;7.45;;
13222;SDS011;6676;45.192;5.722;2022-12-18T08:34:22;11.93;;;7.83;;
13222;SDS011;6676;45.192;5.722;2022-12-18T08:40:00;10.25;;;7.30;;
13222;SDS011;6676;45.192;5.722;2022-12-18T08:42:52;10.80;;;7.30;;
13222;SDS011;6676;45.192;5.722;2022-12-18T08:46:01;10.20;;;7.53;;
13222;SDS011;6676;45.192;5.722;2022-12-18T08:48:53;11.78;;;7.62;;
13222;SDS011;6676;45.192;5.722;2022-12-18T08:51:45;12.63;;;8.55;;
13222;SDS011;6676;45.192;5.722;2022-12-18T08:54:37;11.65;;;8.48;;
13222;SDS011;6676;45.192;5.722;2022-12-18T09:00:21;16.32;;;9.88;;
13222;SDS011;6676;45.192;5.722;2022-12-18T09:03:12;15.78;;;10.65;;
13222;SDS011;6676;45.192;5.722;2022-12-18T09:06:06;15.98;;;11.35;;
13222;SDS011;6676;45.192;5.722;2022-12-18T09:08:58;15.72;;;10.63;;
13222;SDS011;6676;45.192;5.722;2022-12-18T09:12:00;14.60;;;10.75;;
13222;SDS011;6676;45.192;5.722;2022-12-18T09:14:52;14.38;;;10.88;;
13222;SDS011;6676;45.192;5.722;2022-12-18T09:17:45;20.60;;;10.93;;
13222;SDS011;6676;45.192;5.722;2022-12-18T09:20:39;17.02;;;12.33;;
13222;SDS011;6676;45.192;5.722;2022-12-18T09:26:16;18.27;;;12.28;;
13222;SDS011;6676;45.192;5.722;2022-12-18T09:29:09;16.30;;;12.13;;
13222;SDS011;6676;45.192;5.722;2022-12-18T09:32:02;17.52;;;12.98;;
13222;SDS011;6676;45.192;5.722;2022-12-18T09:34:54;16.93;;;11.65;;
13222;SDS011;6676;45.192;5.722;2022-12-18T09:37:49;16.52;;;12.65;;
13222;SDS011;6676;45.192;5.722;2022-12-18T09:40:41;19.95;;;12.55;;
13222;SDS011;6676;45.192;5.722;2022-12-18T09:43:37;17.77;;;12.40;;
13222;SDS011;6676;45.192;5.722;2022-12-18T09:46:33;16.00;;;12.10;;
13222;SDS011;6676;45.192;5.722;2022-12-18T09:52:19;15.53;;;11.53;;
13222;SDS011;6676;45.192;5.722;2022-12-18T09:55:14;16.42;;;12.05;;
13222;SDS011;6676;45.192;5.722;2022-12-18T09:58:00;15.93;;;11.33;;
13222;SDS011;6676;45.192;5.722;2022-12-18T10:00:55;15.98;;;12.03;;
13222;SDS011;6676;45.192;5.722;2022-12-18T10:03:48;14.68;;;11.35;;
13222;SDS011;6676;45.192;5.722;2022-12-18T10:06:43;15.55;;;10.85;;
13222;SDS011;6676;45.192;5.722;2022-12-18T10:09:28;15.50;;;10.88;;
13222;SDS011;6676;45.192;5.722;2022-12-18T10:12:24;14.87;;;11.18;;
13222;SDS011;6676;45.192;5.722;2022-12-18T10:15:19;13.20;;;10.40;;
13222;SDS011;6676;45.192;5.722;2022-12-18T10:21:05;13.20;;;9.93;;
13222;SDS011;6676;45.192;5.722;2022-12-18T10:24:01;16.80;;;11.00;;
13222;SDS011;6676;45.192;5.722;2022-12-18T10:26:55;17.98;;;11.00;;
13222;SDS011;6676;45.192;5.722;2022-12-18T10:30:04;14.07;;;10.23;;
13222;SDS011;6676;45.192;5.722;2022-12-18T10:33:01;12.55;;;9.20;;
13222;SDS011;6676;45.192;5.722;2022-12-18T10:35:53;13.88;;;9.93;;
13222;SDS011;6676;45.192;5.722;2022-12-18T10:38:46;11.20;;;8.38;;
13222;SDS011;6676;45.192;5.722;2022-12-18T10:42:05;12.88;;;8.70;;
13222;SDS011;6676;45.192;5.722;2022-12-18T10:45:09;11.12;;;8.60;;
13222;SDS011;6676;45.192;5.722;2022-12-18T10:50:51;12.00;;;8.85;;
13222;SDS011;6676;45.192;5.722;2022-12-18T10:56:36;14.43;;;9.75;;
13222;SDS011;6676;45.192;5.722;2022-12-18T11:16:47;9.35;;;6.60;;
13222;SDS011;6676;45.192;5.722;2022-12-18T11:20:35;9.33;;;6.58;;
13222;SDS011;6676;45.192;5.722;2022-12-18T11:23:46;8.93;;;6.47;;
13222;SDS011;6676;45.192;5.722;2022-12-18T11:26:44;8.93;;;6.05;;
13222;SDS011;6676;45.192;5.722;2022-12-18T11:29:41;8.53;;;6.42;;
13222;SDS011;6676;45.192;5.722;2022-12-18T11:32:35;9.93;;;5.95;;
13222;SDS011;6676;45.192;5.722;2022-12-18T11:52:31;9.23;;;6.35;;
13222;SDS011;6676;45.192;5.722;2022-12-18T11:55:27;11.60;;;7.22;;
13222;SDS011;6676;45.192;5.722;2022-12-18T11:58:24;9.28;;;6.55;;
13222;SDS011;6676;45.192;5.722;2022-12-18T12:01:32;8.10;;;5.87;;
13222;SDS011;6676;45.192;5.722;2022-12-18T12:04:43;8.33;;;6.37;;
13222;SDS011;6676;45.192;5.722;2022-12-18T12:07:46;11.05;;;7.08;;
13222;SDS011;6676;45.192;5.722;2022-12-18T12:10:45;9.85;;;6.53;;
13222;SDS011;6676;45.192;5.722;2022-12-18T12:16:34;9.55;;;7.70;;
13222;SDS011;6676;45.192;5.722;2022-12-18T12:19:33;12.30;;;8.73;;
13222;SDS011;6676;45.192;5.722;2022-12-18T12:22:30;10.85;;;8.05;;
13222;SDS011;6676;45.192;5.722;2022-12-18T12:25:27;11.57;;;8.43;;
13222;SDS011;6676;45.192;5.722;2022-12-18T12:28:24;12.20;;;7.92;;
13222;SDS011;6676;45.192;5.722;2022-12-18T12:31:22;10.70;;;7.90;;
13222;SDS011;6676;45.192;5.722;2022-12-18T12:34:17;11.45;;;8.03;;
13222;SDS011;6676;45.192;5.722;2022-12-18T12:37:18;10.63;;;7.35;;
13222;SDS011;6676;45.192;5.722;2022-12-18T12:40:13;10.63;;;8.18;;
13222;SDS011;6676;45.192;5.722;2022-12-18T12:43:19;10.30;;;8.18;;
13222;SDS011;6676;45.192;5.722;2022-12-18T12:46:17;11.03;;;7.90;;
13222;SDS011;6676;45.192;5.722;2022-12-18T12:49:15;12.40;;;9.05;;
13222;SDS011;6676;45.192;5.722;2022-12-18T12:52:23;11.35;;;8.65;;
13222;SDS011;6676;45.192;5.722;2022-12-18T12:55:18;10.20;;;8.00;;
13222;SDS011;6676;45.192;5.722;2022-12-18T12:58:14;14.98;;;8.33;;
13222;SDS011;6676;45.192;5.722;2022-12-18T13:01:10;9.63;;;7.30;;
13222;SDS011;6676;45.192;5.722;2022-12-18T13:04:11;14.18;;;8.18;;
13222;SDS011;6676;45.192;5.722;2022-12-18T13:07:12;10.95;;;7.95;;
13222;SDS011;6676;45.192;5.722;2022-12-18T13:11:00;10.23;;;7.80;;
13222;SDS011;6676;45.192;5.722;2022-12-18T13:14:18;9.13;;;7.42;;
13222;SDS011;6676;45.192;5.722;2022-12-18T13:17:29;10.65;;;7.35;;
13222;SDS011;6676;45.192;5.722;2022-12-18T13:20:23;8.13;;;6.53;;
13222;SDS011;6676;45.192;5.722;2022-12-18T13:25:32;10.28;;;6.62;;
13222;SDS011;6676;45.192;5.722;2022-12-18T13:28:51;9.45;;;7.22;;
13222;SDS011;6676;45.192;5.722;2022-12-18T13:35:39;9.08;;;6.95;;
13222;SDS011;6676;45.192;5.722;2022-12-18T13:38:35;10.98;;;7.58;;
13222;SDS011;6676;45.192;5.722;2022-12-18T13:41:28;13.48;;;7.28;;
13222;SDS011;6676;45.192;5.722;2022-12-18T13:44:31;11.12;;;6.83;;
13222;SDS011;6676;45.192;5.722;2022-12-18T13:47:27;8.73;;;6.60;;
13222;SDS011;6676;45.192;5.722;2022-12-18T14:39:03;8.15;;;5.05;;
13222;SDS011;6676;45.192;5.722;2022-12-18T14:41:58;5.90;;;4.72;;
13222;SDS011;6676;45.192;5.722;2022-12-18T14:44:51;6.62;;;4.65;;
13222;SDS011;6676;45.192;5.722;2022-12-18T14:47:46;7.20;;;5.40;;
13222;SDS011;6676;45.192;5.722;2022-12-18T14:50:39;7.50;;;5.85;;
13222;SDS011;6676;45.192;5.722;2022-12-18T14:53:33;6.55;;;5.53;;
13222;SDS011;6676;45.192;5.722;2022-12-18T14:56:34;7.72;;;6.20;;
13222;SDS011;6676;45.192;5.722;2022-12-18T14:59:37;7.87;;;6.28;;
13222;SDS011;6676;45.192;5.722;2022-12-18T15:02:28;9.58;;;6.72;;
13222;SDS011;6676;45.192;5.722;2022-12-18T15:05:24;8.73;;;6.22;;
13222;SDS011;6676;45.192;5.722;2022-12-18T15:08:30;8.85;;;6.33;;
13222;SDS011;6676;45.192;5.722;2022-12-18T15:34:05;10.30;;;8.10;;
13222;SDS011;6676;45.192;5.722;2022-12-18T15:37:06;9.75;;;7.28;;
13222;SDS011;6676;45.192;5.722;2022-12-18T15:39:58;9.00;;;7.08;;
13222;SDS011;6676;45.192;5.722;2022-12-18T15:42:52;9.85;;;7.05;;
13222;SDS011;6676;45.192;5.722;2022-12-18T15:46:06;10.30;;;6.90;;
13222;SDS011;6676;45.192;5.722;2022-12-18T15:49:04;9.73;;;6.72;;
13222;SDS011;6676;45.192;5.722;2022-12-18T15:52:04;10.82;;;7.20;;
13222;SDS011;6676;45.192;5.722;2022-12-18T15:54:56;10.48;;;6.85;;
13222;SDS011;6676;45.192;5.722;2022-12-18T15:58:08;9.70;;;6.53;;
13222;SDS011;6676;45.192;5.722;2022-12-18T16:01:06;8.88;;;6.47;;
13222;SDS011;6676;45.192;5.722;2022-12-18T16:04:00;10.63;;;7.60;;
13222;SDS011;6676;45.192;5.722;2022-12-18T16:06:52;8.58;;;6.58;;
13222;SDS011;6676;45.192;5.722;2022-12-18T16:09:37;12.30;;;7.90;;
13222;SDS011;6676;45.192;5.722;2022-12-18T16:12:31;10.32;;;7.62;;
13222;SDS011;6676;45.192;5.722;2022-12-18T16:15:23;11.10;;;7.75;;
13222;SDS011;6676;45.192;5.722;2022-12-18T16:18:10;11.12;;;7.60;;
13222;SDS011;6676;45.192;5.722;2022-12-18T16:37:38;11.68;;;8.78;;
13222;SDS011;6676;45.192;5.722;2022-12-18T16:40:34;13.40;;;9.53;;
13222;SDS011;6676;45.192;5.722;2022-12-18T16:43:29;11.90;;;8.53;;
13222;SDS011;6676;45.192;5.722;2022-12-18T17:39:34;13.00;;;8.93;;
13222;SDS011;6676;45.192;5.722;2022-12-18T17:42:27;11.33;;;7.50;;
13222;SDS011;6676;45.192;5.722;2022-12-18T17:45:23;11.83;;;7.62;;
13222;SDS011;6676;45.192;5.722;2022-12-18T17:48:14;13.70;;;8.63;;
13222;SDS011;6676;45.192;5.722;2022-12-18T18:54:54;22.15;;;14.83;;
13222;SDS011;6676;45.192;5.722;2022-12-18T18:57:48;18.07;;;11.68;;
13222;SDS011;6676;45.192;5.722;2022-12-18T19:00:41;16.87;;;11.10;;
13222;SDS011;6676;45.192;5.722;2022-12-18T19:03:34;15.43;;;10.13;;
13222;SDS011;6676;45.192;5.722;2022-12-18T19:06:27;16.30;;;10.40;;
13222;SDS011;6676;45.192;5.722;2022-12-18T20:26:02;17.07;;;10.93;;
13222;SDS011;6676;45.192;5.722;2022-12-18T20:28:56;14.15;;;10.18;;
13222;SDS011;6676;45.192;5.722;2022-12-18T20:31:48;14.07;;;10.25;;
13222;SDS011;6676;45.192;5.722;2022-12-18T20:34:40;16.45;;;11.03;;
13222;SDS011;6676;45.192;5.722;2022-12-18T20:37:33;14.80;;;10.28;;
13222;SDS011;6676;45.192;5.722;2022-12-18T20:40:27;14.15;;;9.95;;
13222;SDS011;6676;45.192;5.722;2022-12-18T20:43:22;19.35;;;11.12;;
13222;SDS011;6676;45.192;5.722;2022-12-18T20:46:18;14.43;;;9.98;;
13222;SDS011;6676;45.192;5.722;2022-12-18T20:49:11;14.35;;;10.70;;
13222;SDS011;6676;45.192;5.722;2022-12-18T20:52:04;12.53;;;8.95;;
13222;SDS011;6676;45.192;5.722;2022-12-18T20:55:00;15.08;;;9.03;;
13222;SDS011;6676;45.192;5.722;2022-12-18T20:57:58;13.58;;;8.85;;
13222;SDS011;6676;45.192;5.722;2022-12-18T21:01:01;13.35;;;9.18;;
13222;SDS011;6676;45.192;5.722;2022-12-18T21:04:00;13.18;;;9.45;;
13222;SDS011;6676;45.192;5.722;2022-12-18T21:06:57;13.43;;;9.25;;
13222;SDS011;6676;45.192;5.722;2022-12-18T21:11:12;15.00;;;10.30;;
13222;SDS011;6676;45.192;5.722;2022-12-18T21:14:25;19.27;;;11.48;;
13222;SDS011;6676;45.192;5.722;2022-12-18T21:17:18;17.12;;;11.00;;
13222;SDS011;6676;45.192;5.722;2022-12-18T21:20:10;18.62;;;10.60;;
13222;SDS011;6676;45.192;5.722;2022-12-18T21:23:04;14.25;;;9.88;;
13222;SDS011;6676;45.192;5.722;2022-12-18T21:26:14;13.28;;;9.30;;
13222;SDS011;6676;45.192;5.722;2022-12-18T21:29:09;12.60;;;8.65;;
13222;SDS011;6676;45.192;5.722;2022-12-18T21:32:05;15.48;;;9.38;;
13222;SDS011;6676;45.192;5.722;2022-12-18T21:36:08;14.43;;;10.13;;
13222;SDS011;6676;45.192;5.722;2022-12-18T21:39:00;14.55;;;9.70;;
13222;SDS011;6676;45.192;5.722;2022-12-18T21:41:52;12.18;;;7.97;;
13222;SDS011;6676;45.192;5.722;2022-12-18T21:45:03;11.60;;;7.83;;
13222;SDS011;6676;45.192;5.722;2022-12-18T21:47:55;12.47;;;9.05;;
13222;SDS011;6676;45.192;5.722;2022-12-18T22:04:11;14.98;;;10.20;;
13222;SDS011;6676;45.192;5.722;2022-12-18T22:07:05;16.02;;;11.08;;
13222;SDS011;6676;45.192;5.722;2022-12-18T22:10:00;16.55;;;10.93;;
13222;SDS011;6676;45.192;5.722;2022-12-18T22:12:52;18.07;;;11.43;;
13222;SDS011;6676;45.192;5.722;2022-12-18T22:33:41;10.82;;;8.23;;
13222;SDS011;6676;45.192;5.722;2022-12-18T23:03:44;10.98;;;7.25;;
13222;SDS011;6676;45.192;5.722;2022-12-18T23:06:38;8.78;;;6.50;;
13222;SDS011;6676;45.192;5.722;2022-12-18T23:09:31;10.18;;;6.33;;
13222;SDS011;6676;45.192;5.722;2022-12-18T23:12:22;9.75;;;6.78;;
13222;SDS011;6676;45.192;5.722;2022-12-18T23:15:14;8.98;;;5.80;;
13222;SDS011;6676;45.192;5.722;2022-12-18T23:22:13;11.80;;;7.53;;
13222;SDS011;6676;45.192;5.722;2022-12-18T23:25:08;9.18;;;6.78;;
13222;SDS011;6676;45.192;5.722;2022-12-18T23:28:02;9.33;;;6.35;;
13222;SDS011;6676;45.192;5.722;2022-12-18T23:34:10;8.70;;;5.95;;
13222;SDS011;6676;45.192;5.722;2022-12-18T23:37:04;8.88;;;6.12;;
13222;SDS011;6676;45.192;5.722;2022-12-18T23:54:29;9.15;;;6.28;;
13222;SDS011;6676;45.192;5.722;2022-12-18T23:57:21;8.90;;;6.25;;
